createdAt,value
2019-03-03T00:00:34.735Z,82.12
2019-03-03T00:01:34.745Z,82.13
2019-03-03T00:02:34.728Z,81.83
2019-03-03T00:03:34.755Z,81.67
2019-03-03T00:04:34.738Z,81.78
2019-03-03T00:05:34.728Z,81.94
2019-03-03T00:06:34.716Z,81.77
2019-03-03T00:07:34.732Z,81.59
2019-03-03T00:08:34.711Z,81.84
2019-03-03T00:09:34.713Z,81.86
2019-03-03T00:10:34.702Z,81.95
2019-03-03T00:11:34.714Z,81.91
2019-03-03T00:12:34.716Z,81.99
2019-03-03T00:13:34.741Z,82.01
2019-03-03T00:14:34.718Z,81.81
2019-03-03T00:15:34.695Z,81.82
2019-03-03T00:16:34.722Z,81.77
2019-03-03T00:17:34.691Z,81.78
2019-03-03T00:18:34.699Z,81.88
2019-03-03T00:19:34.709Z,81.76
2019-03-03T00:20:34.708Z,81.56
2019-03-03T00:21:34.703Z,81.61
2019-03-03T00:22:34.723Z,81.42
2019-03-03T00:23:34.708Z,81.51
2019-03-03T00:24:34.696Z,81.51
2019-03-03T00:25:34.727Z,81.58
2019-03-03T00:26:34.972Z,81.5
2019-03-03T00:27:34.774Z,81.51
2019-03-03T00:28:34.692Z,81.52
2019-03-03T00:29:34.713Z,81.68
2019-03-03T00:30:34.684Z,81.57
2019-03-03T00:31:34.701Z,81.52
2019-03-03T00:32:34.714Z,81.71
2019-03-03T00:33:34.687Z,81.8
2019-03-03T00:34:34.680Z,81.71
2019-03-03T00:35:34.694Z,81.61
2019-03-03T00:36:34.691Z,81.71
2019-03-03T00:37:34.670Z,81.75
2019-03-03T00:38:34.679Z,81.66
2019-03-03T00:39:34.675Z,81.65
2019-03-03T00:40:34.687Z,81.67
2019-03-03T00:41:34.658Z,81.65
2019-03-03T00:42:34.668Z,81.65
2019-03-03T00:43:34.740Z,81.62
2019-03-03T00:44:34.695Z,81.56
2019-03-03T00:45:34.673Z,81.55
2019-03-03T00:46:34.684Z,81.62
2019-03-03T00:47:34.649Z,81.48
2019-03-03T00:48:34.701Z,81.34
2019-03-03T00:49:34.660Z,81.53
2019-03-03T00:50:34.651Z,81.42
2019-03-03T00:51:34.658Z,81.32
2019-03-03T00:52:34.651Z,81.27
2019-03-03T00:53:34.668Z,81.43
2019-03-03T00:54:34.646Z,81.28
2019-03-03T00:55:34.659Z,81.13
2019-03-03T00:56:34.653Z,81.35
2019-03-03T00:57:34.635Z,81.32
2019-03-03T00:58:34.673Z,81.12
2019-03-03T00:59:34.634Z,81.36
2019-03-03T01:00:34.634Z,81.42
2019-03-03T01:01:34.636Z,81.39
2019-03-03T01:02:34.655Z,81.44
2019-03-03T01:03:34.648Z,81.48
2019-03-03T01:04:34.639Z,81.55
2019-03-03T01:05:34.641Z,81.57
2019-03-03T01:06:34.628Z,81.57
2019-03-03T01:07:34.624Z,81.51
2019-03-03T01:08:34.621Z,81.65
2019-03-03T01:09:34.969Z,81.56
2019-03-03T01:10:34.644Z,81.55
2019-03-03T01:11:34.632Z,81.56
2019-03-03T01:12:34.630Z,81.59
2019-03-03T01:13:34.627Z,81.5
2019-03-03T01:14:34.627Z,81.57
2019-03-03T01:15:34.611Z,81.5
2019-03-03T01:16:34.640Z,81.55
2019-03-03T01:17:34.697Z,81.37
2019-03-03T01:18:34.639Z,81.25
2019-03-03T01:19:34.626Z,81.38
2019-03-03T01:20:34.598Z,81.32
2019-03-03T01:21:34.605Z,81.31
2019-03-03T01:22:34.610Z,81.66
2019-03-03T01:23:34.616Z,81.73
2019-03-03T01:24:34.608Z,81.75
2019-03-03T01:25:34.603Z,81.4
2019-03-03T01:26:34.604Z,81.63
2019-03-03T01:27:34.595Z,81.69
2019-03-03T01:28:34.620Z,81.41
2019-03-03T01:29:34.622Z,81.44
2019-03-03T01:30:34.602Z,81.29
2019-03-03T01:31:34.738Z,81.01
2019-03-03T01:32:34.604Z,81.13
2019-03-03T01:33:34.622Z,81.22
2019-03-03T01:34:34.606Z,81.2
2019-03-03T01:35:34.616Z,81.18
2019-03-03T01:36:34.593Z,81.2
2019-03-03T01:37:34.588Z,80.8
2019-03-03T01:38:34.588Z,81.08
2019-03-03T01:39:34.595Z,80.94
2019-03-03T01:40:34.569Z,81.08
2019-03-03T01:41:34.574Z,80.94
2019-03-03T01:42:34.578Z,80.98
2019-03-03T01:43:34.585Z,81.01
2019-03-03T01:44:34.581Z,80.85
2019-03-03T01:45:34.577Z,81.01
2019-03-03T01:46:34.609Z,81.02
2019-03-03T01:47:34.569Z,81.13
2019-03-03T01:48:34.572Z,80.96
2019-03-03T01:49:34.566Z,81.05
2019-03-03T01:50:34.572Z,81.08
2019-03-03T01:51:34.567Z,81.11
2019-03-03T01:52:34.556Z,80.96
2019-03-03T01:53:34.707Z,81.14
2019-03-03T01:54:34.632Z,81.01
2019-03-03T01:55:34.577Z,81.11
2019-03-03T01:56:34.559Z,80.87
2019-03-03T01:57:34.541Z,81
2019-03-03T01:58:34.562Z,81.08
2019-03-03T01:59:34.584Z,80.72
2019-03-03T02:00:34.552Z,80.82
2019-03-03T02:01:34.582Z,80.89
2019-03-03T02:02:34.590Z,80.82
2019-03-03T02:03:34.536Z,81.04
2019-03-03T02:04:34.548Z,80.9
2019-03-03T02:05:34.543Z,80.97
2019-03-03T02:06:34.537Z,81.12
2019-03-03T02:07:34.532Z,81.07
2019-03-03T02:08:34.545Z,80.88
2019-03-03T02:09:34.549Z,80.79
2019-03-03T02:10:34.518Z,80.61
2019-03-03T02:11:34.529Z,80.6
2019-03-03T02:12:34.579Z,80.71
2019-03-03T02:13:34.580Z,80.86
2019-03-03T02:14:34.558Z,80.88
2019-03-03T02:15:34.545Z,80.66
2019-03-03T02:16:34.521Z,80.56
2019-03-03T02:17:34.546Z,80.69
2019-03-03T02:18:34.526Z,80.91
2019-03-03T02:19:34.525Z,80.98
2019-03-03T02:20:34.542Z,80.98
2019-03-03T02:21:34.511Z,80.45
2019-03-03T02:22:34.527Z,80.73
2019-03-03T02:23:34.684Z,80.69
2019-03-03T02:24:34.658Z,80.63
2019-03-03T02:25:34.558Z,80.76
2019-03-03T02:26:34.555Z,80.84
2019-03-03T02:27:34.516Z,80.68
2019-03-03T02:28:34.516Z,80.79
2019-03-03T02:29:34.523Z,80.65
2019-03-03T02:30:34.516Z,80.49
2019-03-03T02:31:34.503Z,80.74
2019-03-03T02:32:34.538Z,80.81
2019-03-03T02:33:34.513Z,80.53
2019-03-03T02:34:34.522Z,80.61
2019-03-03T02:35:34.502Z,80.42
2019-03-03T02:36:34.546Z,80.46
2019-03-03T02:37:34.524Z,80.62
2019-03-03T02:38:34.490Z,80.69
2019-03-03T02:39:34.520Z,80.85
2019-03-03T02:40:34.520Z,80.73
2019-03-03T02:41:34.506Z,80.77
2019-03-03T02:42:34.498Z,80.56
2019-03-03T02:43:34.482Z,80.75
2019-03-03T02:44:34.498Z,80.99
2019-03-03T02:45:34.478Z,80.94
2019-03-03T02:46:35.737Z,80.9
2019-03-03T02:47:34.503Z,80.41
2019-03-03T02:48:34.481Z,80.63
2019-03-03T02:49:34.522Z,80.55
2019-03-03T02:50:34.504Z,80.6
2019-03-03T02:51:34.496Z,80.5
2019-03-03T02:52:34.485Z,80.17
2019-03-03T02:53:34.547Z,80.4
2019-03-03T02:54:34.496Z,80.52
2019-03-03T02:55:34.478Z,80.62
2019-03-03T02:56:34.480Z,80.58
2019-03-03T02:57:34.475Z,80.59
2019-03-03T02:58:34.470Z,80.7
2019-03-03T02:59:34.477Z,80.55
2019-03-03T03:00:34.783Z,80.47
2019-03-03T03:01:34.478Z,80.44
2019-03-03T03:02:34.461Z,80.54
2019-03-03T03:03:34.484Z,80.53
2019-03-03T03:04:34.464Z,80.56
2019-03-03T03:05:34.468Z,80.54
2019-03-03T03:06:34.486Z,80.76
2019-03-03T03:07:34.766Z,80.57
2019-03-03T03:08:34.554Z,80.58
2019-03-03T03:09:34.456Z,80.51
2019-03-03T03:10:34.465Z,80.5
2019-03-03T03:11:34.451Z,80.32
2019-03-03T03:12:34.463Z,80.45
2019-03-03T03:13:34.462Z,80.41
2019-03-03T03:14:34.450Z,80.35
2019-03-03T03:15:34.451Z,80.39
2019-03-03T03:16:34.468Z,80.39
2019-03-03T03:17:34.450Z,80.38
2019-03-03T03:18:34.436Z,80.2
2019-03-03T03:19:34.446Z,80.19
2019-03-03T03:20:34.460Z,80.27
2019-03-03T03:21:34.424Z,80.24
2019-03-03T03:22:34.434Z,80.24
2019-03-03T03:23:34.444Z,80.2
2019-03-03T03:24:34.442Z,80.21
2019-03-03T03:25:34.443Z,80.17
2019-03-03T03:26:34.470Z,80.17
2019-03-03T03:27:34.455Z,80.25
2019-03-03T03:28:34.429Z,80.11
2019-03-03T03:29:34.899Z,79.97
2019-03-03T03:30:34.469Z,79.98
2019-03-03T03:31:34.429Z,79.77
2019-03-03T03:32:34.419Z,79.76
2019-03-03T03:33:34.458Z,79.79
2019-03-03T03:34:34.433Z,79.74
2019-03-03T03:35:34.434Z,79.75
2019-03-03T03:36:36.624Z,79.71
2019-03-03T03:37:34.440Z,79.71
2019-03-03T03:38:34.421Z,79.57
2019-03-03T03:39:34.426Z,79.58
2019-03-03T03:40:34.428Z,79.3
2019-03-03T03:41:34.414Z,79.39
2019-03-03T03:42:34.410Z,79.36
2019-03-03T03:43:34.413Z,79.47
2019-03-03T03:44:34.421Z,79.64
2019-03-03T03:45:34.414Z,79.57
2019-03-03T03:46:34.400Z,79.44
2019-03-03T03:47:34.414Z,79.4
2019-03-03T03:48:34.406Z,79.56
2019-03-03T03:49:34.403Z,79.54
2019-03-03T03:50:34.410Z,79.47
2019-03-03T03:51:34.477Z,79.51
2019-03-03T03:52:34.434Z,79.64
2019-03-03T03:53:34.399Z,79.42
2019-03-03T03:54:34.435Z,79.47
2019-03-03T03:55:34.398Z,79.45
2019-03-03T03:56:34.397Z,79.47
2019-03-03T03:57:34.389Z,79.59
2019-03-03T03:58:34.400Z,79.4
2019-03-03T03:59:34.409Z,79.47
2019-03-03T04:00:34.394Z,79.43
2019-03-03T04:01:34.406Z,79.34
2019-03-03T04:02:34.431Z,79.29
2019-03-03T04:03:34.394Z,79.28
2019-03-03T04:04:34.389Z,79.42
2019-03-03T04:05:34.391Z,79.34
2019-03-03T04:06:34.389Z,79.4
2019-03-03T04:07:34.368Z,79.37
2019-03-03T04:08:34.372Z,79.39
2019-03-03T04:09:34.379Z,79.43
2019-03-03T04:10:34.366Z,79.4
2019-03-03T04:11:34.379Z,79.45
2019-03-03T04:12:34.392Z,79.32
2019-03-03T04:13:34.489Z,79.46
2019-03-03T04:14:34.986Z,79.51
2019-03-03T04:15:34.361Z,79.51
2019-03-03T04:16:34.378Z,79.49
2019-03-03T04:17:34.376Z,79.49
2019-03-03T04:18:34.370Z,79.63
2019-03-03T04:19:34.367Z,79.71
2019-03-03T04:20:34.373Z,79.74
2019-03-03T04:21:34.364Z,79.9
2019-03-03T04:22:34.366Z,79.85
2019-03-03T04:23:34.353Z,79.69
2019-03-03T04:24:34.382Z,79.78
2019-03-03T04:25:34.362Z,79.83
2019-03-03T04:26:34.360Z,79.8
2019-03-03T04:27:34.365Z,79.94
2019-03-03T04:28:34.371Z,79.97
2019-03-03T04:29:34.360Z,80.01
2019-03-03T04:30:34.360Z,79.86
2019-03-03T04:31:34.353Z,80.14
2019-03-03T04:32:34.337Z,80.07
2019-03-03T04:33:34.330Z,80.1
2019-03-03T04:34:34.334Z,80.15
2019-03-03T04:35:34.339Z,80.17
2019-03-03T04:36:34.344Z,80.36
2019-03-03T04:37:34.346Z,80.32
2019-03-03T04:38:34.328Z,80.38
2019-03-03T04:39:34.336Z,80.41
2019-03-03T04:40:34.335Z,80.38
2019-03-03T04:41:34.334Z,80.57
2019-03-03T04:42:34.345Z,80.47
2019-03-03T04:43:34.340Z,80.4
2019-03-03T04:44:34.335Z,80.2
2019-03-03T04:45:34.335Z,80.59
2019-03-03T04:46:34.336Z,80.52
2019-03-03T04:47:34.328Z,80.4
2019-03-03T04:48:34.371Z,80.59
2019-03-03T04:49:34.348Z,80.5
2019-03-03T04:50:34.331Z,80.53
2019-03-03T04:51:34.339Z,80.61
2019-03-03T04:52:34.320Z,80.6
2019-03-03T04:53:34.349Z,80.65
2019-03-03T04:54:34.317Z,80.48
2019-03-03T04:55:34.317Z,80.5
2019-03-03T04:56:34.303Z,80.58
2019-03-03T04:57:34.319Z,80.37
2019-03-03T04:58:34.451Z,80.48
2019-03-03T04:59:34.395Z,80.67
2019-03-03T05:00:34.319Z,80.39
2019-03-03T05:01:34.321Z,80.16
2019-03-03T05:02:34.325Z,80.57
2019-03-03T05:03:34.319Z,80.64
2019-03-03T05:04:34.308Z,80.43
2019-03-03T05:05:34.301Z,80.46
2019-03-03T05:06:34.291Z,80.56
2019-03-03T05:07:34.313Z,80.45
2019-03-03T05:08:34.285Z,80.46
2019-03-03T05:09:34.315Z,80.6
2019-03-03T05:10:34.323Z,80.46
2019-03-03T05:11:34.296Z,80.6
2019-03-03T05:12:34.305Z,80.46
2019-03-03T05:13:34.343Z,80.49
2019-03-03T05:14:34.303Z,80.56
2019-03-03T05:15:34.308Z,80.63
2019-03-03T05:16:34.322Z,80.44
2019-03-03T05:17:34.287Z,80.78
2019-03-03T05:18:34.294Z,80.8
2019-03-03T05:19:34.284Z,80.77
2019-03-03T05:20:34.289Z,80.75
2019-03-03T05:21:34.600Z,80.81
2019-03-03T05:22:34.270Z,80.66
2019-03-03T05:23:34.278Z,80.52
2019-03-03T05:24:34.724Z,80.59
2019-03-03T05:25:34.283Z,80.44
2019-03-03T05:26:34.293Z,80.51
2019-03-03T05:27:34.285Z,80.18
2019-03-03T05:28:34.281Z,80.34
2019-03-03T05:29:34.297Z,80.42
2019-03-03T05:30:34.264Z,80.28
2019-03-03T05:31:34.263Z,80.42
2019-03-03T05:32:34.270Z,80.18
2019-03-03T05:33:34.254Z,79.86
2019-03-03T05:34:34.257Z,79.94
2019-03-03T05:35:34.277Z,80.14
2019-03-03T05:36:34.263Z,79.89
2019-03-03T05:37:34.281Z,80.05
2019-03-03T05:38:34.329Z,80.19
2019-03-03T05:39:34.270Z,80.32
2019-03-03T05:40:34.273Z,80.2
2019-03-03T05:41:34.261Z,80.2
2019-03-03T05:42:34.256Z,80.18
2019-03-03T05:43:34.443Z,80.14
2019-03-03T05:44:34.255Z,79.93
2019-03-03T05:45:34.238Z,79.98
2019-03-03T05:46:34.238Z,80.05
2019-03-03T05:47:34.235Z,79.72
2019-03-03T05:48:34.275Z,79.95
2019-03-03T05:49:34.228Z,79.8
2019-03-03T05:50:34.237Z,79.85
2019-03-03T05:51:34.239Z,80.06
2019-03-03T05:52:34.269Z,79.93
2019-03-03T05:53:34.230Z,80.03
2019-03-03T05:54:34.232Z,80.03
2019-03-03T05:55:34.252Z,80
2019-03-03T05:56:34.218Z,80.01
2019-03-03T05:57:34.244Z,79.9
2019-03-03T05:58:34.213Z,80.16
2019-03-03T05:59:34.226Z,80.13
2019-03-03T06:00:34.244Z,80.13
2019-03-03T06:01:34.437Z,80.11
2019-03-03T06:02:34.232Z,80.06
2019-03-03T06:03:34.222Z,80.02
2019-03-03T06:04:34.248Z,80.1
2019-03-03T06:05:34.298Z,80.15
2019-03-03T06:06:34.291Z,80.35
2019-03-03T06:07:34.209Z,80.3
2019-03-03T06:08:34.217Z,80.17
2019-03-03T06:09:34.207Z,80.07
2019-03-03T06:10:34.204Z,79.99
2019-03-03T06:11:34.217Z,80
2019-03-03T06:12:34.203Z,79.83
2019-03-03T06:13:34.213Z,79.77
2019-03-03T06:14:34.218Z,79.46
2019-03-03T06:15:34.257Z,79.52
2019-03-03T06:16:34.201Z,79.37
2019-03-03T06:17:34.197Z,79.58
2019-03-03T06:18:34.226Z,79.79
2019-03-03T06:19:34.222Z,79.41
2019-03-03T06:20:34.193Z,79.44
2019-03-03T06:21:34.201Z,79.32
2019-03-03T06:22:34.194Z,79.24
2019-03-03T06:23:34.194Z,79.27
2019-03-03T06:24:34.200Z,79.05
2019-03-03T06:25:34.201Z,78.93
2019-03-03T06:26:34.194Z,78.89
2019-03-03T06:27:34.247Z,79.01
2019-03-03T06:28:34.201Z,78.96
2019-03-03T06:29:34.209Z,79.01
2019-03-03T06:30:34.204Z,78.96
2019-03-03T06:31:34.175Z,78.84
2019-03-03T06:32:34.184Z,78.65
2019-03-03T06:33:34.191Z,78.7
2019-03-03T06:34:34.171Z,78.62
2019-03-03T06:35:34.183Z,78.51
2019-03-03T06:36:34.189Z,78.46
2019-03-03T06:37:34.174Z,78.54
2019-03-03T06:38:34.169Z,78.35
2019-03-03T06:39:34.192Z,78.52
2019-03-03T06:40:34.173Z,77.61
2019-03-03T06:41:34.169Z,77.54
2019-03-03T06:42:34.194Z,77.63
2019-03-03T06:43:34.170Z,77.76
2019-03-03T06:44:34.165Z,77.85
2019-03-03T06:45:34.158Z,77.75
2019-03-03T06:46:34.165Z,77.59
2019-03-03T06:47:34.159Z,77.53
2019-03-03T06:48:34.157Z,77.74
2019-03-03T06:49:34.293Z,77.68
2019-03-03T06:50:34.174Z,77.57
2019-03-03T06:51:34.232Z,77.4
2019-03-03T06:52:34.167Z,77.47
2019-03-03T06:53:34.154Z,77.1
2019-03-03T06:54:34.178Z,76.99
2019-03-03T06:55:34.164Z,77.06
2019-03-03T06:56:34.162Z,76.86
2019-03-03T06:57:34.163Z,76.91
2019-03-03T06:58:34.144Z,76.91
2019-03-03T06:59:34.177Z,76.97
2019-03-03T07:00:34.138Z,77.08
2019-03-03T07:01:34.148Z,77.23
2019-03-03T07:02:34.131Z,77.17
2019-03-03T07:03:34.153Z,77.15
2019-03-03T07:04:34.133Z,77.17
2019-03-03T07:05:34.136Z,77.13
2019-03-03T07:06:34.131Z,76.92
2019-03-03T07:07:34.132Z,76.93
2019-03-03T07:08:34.167Z,76.78
2019-03-03T07:09:34.161Z,76.94
2019-03-03T07:10:34.160Z,76.92
2019-03-03T07:11:34.214Z,77
2019-03-03T07:12:34.130Z,77.04
2019-03-03T07:13:34.160Z,77.18
2019-03-03T07:14:34.130Z,77.23
2019-03-03T07:15:34.131Z,76.98
2019-03-03T07:16:34.116Z,76.92
2019-03-03T07:17:34.136Z,77.04
2019-03-03T07:18:34.121Z,77.11
2019-03-03T07:19:34.121Z,77.31
2019-03-03T07:20:34.125Z,77.24
2019-03-03T07:21:34.125Z,77.37
2019-03-03T07:22:34.109Z,77.34
2019-03-03T07:23:34.120Z,77.32
2019-03-03T07:24:34.106Z,77.29
2019-03-03T07:25:34.105Z,77.43
2019-03-03T07:26:34.127Z,77.39
2019-03-03T07:27:34.139Z,77.34
2019-03-03T07:28:34.104Z,76.85
2019-03-03T07:29:34.103Z,76.97
2019-03-03T07:30:34.108Z,77.07
2019-03-03T07:31:34.110Z,77.19
2019-03-03T07:32:34.163Z,77.27
2019-03-03T07:33:34.354Z,77.25
2019-03-03T07:34:34.105Z,77.23
2019-03-03T07:35:34.106Z,77.17
2019-03-03T07:36:34.167Z,77.3
2019-03-03T07:37:34.090Z,77.21
2019-03-03T07:38:34.095Z,77.34
2019-03-03T07:39:34.103Z,77.26
2019-03-03T07:40:34.092Z,77.25
2019-03-03T07:41:34.126Z,77.35
2019-03-03T07:42:34.097Z,77.32
2019-03-03T07:43:34.078Z,77.32
2019-03-03T07:44:34.074Z,77.29
2019-03-03T07:45:34.089Z,77.29
2019-03-03T07:46:34.082Z,77.16
2019-03-03T07:47:34.068Z,76.97
2019-03-03T07:48:34.082Z,77.01
2019-03-03T07:49:34.083Z,76.79
2019-03-03T07:50:34.091Z,76.69
2019-03-03T07:51:34.094Z,76.5
2019-03-03T07:52:34.086Z,76.6
2019-03-03T07:53:34.074Z,75.98
2019-03-03T07:54:34.076Z,76.11
2019-03-03T07:55:34.149Z,76.09
2019-03-03T07:56:34.066Z,75.93
2019-03-03T07:57:34.079Z,75.75
2019-03-03T07:58:34.085Z,75.77
2019-03-03T07:59:34.064Z,75.78
2019-03-03T08:00:34.091Z,75.61
2019-03-03T08:01:34.078Z,75.03
2019-03-03T08:02:34.090Z,74.65
2019-03-03T08:03:34.058Z,74.41
2019-03-03T08:04:34.048Z,74.4
2019-03-03T08:05:34.088Z,74.38
2019-03-03T08:06:34.063Z,74.25
2019-03-03T08:07:34.056Z,74.58
2019-03-03T08:08:34.051Z,74.12
2019-03-03T08:09:34.042Z,73.95
2019-03-03T08:10:34.058Z,73.88
2019-03-03T08:11:34.037Z,73.64
2019-03-03T08:12:34.052Z,73.54
2019-03-03T08:13:34.071Z,73.62
2019-03-03T08:14:34.050Z,73.8
2019-03-03T08:15:34.085Z,73.93
2019-03-03T08:16:34.047Z,74.12
2019-03-03T08:17:34.085Z,73.61
2019-03-03T08:18:34.038Z,73.73
2019-03-03T08:19:34.050Z,73.86
2019-03-03T08:20:34.060Z,73.89
2019-03-03T08:21:34.023Z,73.78
2019-03-03T08:22:34.102Z,73.53
2019-03-03T08:23:34.048Z,73.13
2019-03-03T08:24:34.015Z,73.21
2019-03-03T08:25:34.037Z,73.58
2019-03-03T08:26:34.037Z,73.65
2019-03-03T08:27:34.057Z,73.8
2019-03-03T08:28:34.020Z,73.81
2019-03-03T08:29:34.045Z,73.94
2019-03-03T08:30:34.035Z,73.75
2019-03-03T08:31:34.030Z,73.89
2019-03-03T08:32:34.081Z,73.82
2019-03-03T08:33:34.072Z,73.8
2019-03-03T08:34:34.038Z,73.96
2019-03-03T08:35:34.021Z,74.14
2019-03-03T08:36:34.059Z,74.09
2019-03-03T08:37:34.031Z,74.24
2019-03-03T08:38:34.074Z,73.73
2019-03-03T08:39:34.285Z,73.86
2019-03-03T08:40:34.015Z,73.63
2019-03-03T08:41:34.228Z,73.7
2019-03-03T08:42:34.016Z,73.9
2019-03-03T08:43:34.044Z,74.05
2019-03-03T08:44:34.050Z,74.24
2019-03-03T08:45:34.010Z,73.96
2019-03-03T08:46:34.221Z,73.92
2019-03-03T08:47:34.052Z,73.87
2019-03-03T08:48:33.995Z,73.57
2019-03-03T08:49:33.997Z,73.67
2019-03-03T08:50:34.000Z,73.79
2019-03-03T08:51:34.006Z,73.59
2019-03-03T08:52:33.989Z,73.7
2019-03-03T08:53:34.040Z,73.69
2019-03-03T08:54:34.037Z,73.7
2019-03-03T08:55:33.982Z,73.62
2019-03-03T08:56:33.972Z,73.72
2019-03-03T08:57:33.999Z,73.82
2019-03-03T08:58:33.995Z,73.68
2019-03-03T08:59:33.982Z,73.9
2019-03-03T09:00:33.988Z,74.04
2019-03-03T09:01:34.016Z,73.97
2019-03-03T09:02:34.007Z,73.48
2019-03-03T09:03:33.952Z,73.4
2019-03-03T09:04:33.974Z,73.49
2019-03-03T09:05:33.964Z,73.61
2019-03-03T09:06:33.968Z,73.71
2019-03-03T09:07:33.983Z,73.83
2019-03-03T09:08:33.963Z,73.97
2019-03-03T09:09:33.966Z,73.9
2019-03-03T09:10:33.957Z,73.76
2019-03-03T09:11:33.976Z,73.75
2019-03-03T09:12:34.216Z,73.72
2019-03-03T09:13:33.978Z,73.62
2019-03-03T09:14:34.006Z,73.41
2019-03-03T09:15:33.965Z,73.39
2019-03-03T09:16:34.001Z,73.53
2019-03-03T09:17:34.012Z,73.64
2019-03-03T09:18:34.052Z,73.78
2019-03-03T09:19:33.958Z,73.43
2019-03-03T09:20:33.935Z,73.1
2019-03-03T09:21:34.033Z,73.34
2019-03-03T09:22:33.950Z,73.46
2019-03-03T09:23:33.963Z,73.48
2019-03-03T09:24:33.934Z,73.63
2019-03-03T09:25:33.953Z,73.46
2019-03-03T09:26:33.951Z,73.45
2019-03-03T09:27:33.947Z,73.56
2019-03-03T09:28:34.200Z,73.5
2019-03-03T09:29:34.198Z,73.15
2019-03-03T09:30:33.924Z,73.19
2019-03-03T09:31:33.950Z,73.01
2019-03-03T09:32:33.961Z,72.95
2019-03-03T09:33:33.920Z,72.87
2019-03-03T09:34:33.944Z,72.59
2019-03-03T09:35:33.933Z,72.71
2019-03-03T09:36:33.931Z,72.91
2019-03-03T09:37:33.936Z,72.58
2019-03-03T09:38:33.929Z,72.5
2019-03-03T09:39:33.947Z,72.44
2019-03-03T09:40:33.925Z,72.61
2019-03-03T09:41:33.941Z,72.76
2019-03-03T09:42:33.936Z,72.83
2019-03-03T09:43:33.944Z,73.17
2019-03-03T09:44:33.919Z,73.08
2019-03-03T09:45:33.936Z,73.25
2019-03-03T09:46:33.929Z,73.11
2019-03-03T09:47:33.917Z,72.9
2019-03-03T09:48:33.898Z,72.34
2019-03-03T09:49:33.929Z,72.54
2019-03-03T09:50:33.939Z,72.75
2019-03-03T09:51:33.897Z,72.85
2019-03-03T09:52:33.900Z,72.88
2019-03-03T09:53:33.903Z,72.8
2019-03-03T09:54:33.910Z,72.73
2019-03-03T09:55:33.911Z,72.86
2019-03-03T09:56:33.923Z,73
2019-03-03T09:57:33.880Z,72.94
2019-03-03T09:58:33.885Z,73.05
2019-03-03T09:59:33.901Z,73.06
2019-03-03T10:00:33.915Z,72.96
2019-03-03T10:01:33.904Z,72.74
2019-03-03T10:02:33.904Z,72.66
2019-03-03T10:03:33.881Z,72.8
2019-03-03T10:04:33.876Z,72.89
2019-03-03T10:05:33.917Z,73
2019-03-03T10:06:34.149Z,73.04
2019-03-03T10:07:34.060Z,73
2019-03-03T10:08:33.867Z,72.71
2019-03-03T10:09:33.887Z,72.62
2019-03-03T10:10:33.916Z,72.65
2019-03-03T10:11:33.869Z,72.93
2019-03-03T10:12:33.917Z,72.94
2019-03-03T10:13:33.877Z,72.61
2019-03-03T10:14:33.889Z,72.59
2019-03-03T10:15:33.891Z,72.62
2019-03-03T10:16:33.943Z,72.42
2019-03-03T10:17:33.889Z,72.23
2019-03-03T10:18:33.896Z,72.5
2019-03-03T10:19:33.898Z,72.5
2019-03-03T10:20:33.886Z,72.49
2019-03-03T10:21:33.864Z,72.63
2019-03-03T10:22:33.888Z,72.64
2019-03-03T10:23:33.869Z,72.56
2019-03-03T10:24:33.872Z,72.49
2019-03-03T10:25:33.861Z,72.66
2019-03-03T10:26:35.046Z,72.51
2019-03-03T10:27:33.879Z,72.53
2019-03-03T10:28:33.886Z,72.17
2019-03-03T10:29:34.215Z,72.48
2019-03-03T10:30:33.895Z,72.67
2019-03-03T10:31:33.861Z,72.76
2019-03-03T10:32:33.860Z,72.91
2019-03-03T10:33:33.870Z,72.98
2019-03-03T10:34:33.892Z,72.89
2019-03-03T10:35:33.887Z,72.96
2019-03-03T10:36:33.847Z,73.11
2019-03-03T10:37:33.890Z,72.75
2019-03-03T10:38:36.203Z,72.46
2019-03-03T10:39:33.837Z,72.53
2019-03-03T10:40:33.858Z,72.49
2019-03-03T10:41:33.911Z,72.67
2019-03-03T10:42:33.838Z,72.91
2019-03-03T10:43:33.841Z,72.87
2019-03-03T10:44:33.890Z,72.7
2019-03-03T10:45:33.882Z,72.54
2019-03-03T10:46:33.849Z,72.53
2019-03-03T10:47:33.842Z,72.55
2019-03-03T10:48:33.827Z,72.29
2019-03-03T10:49:33.827Z,72.13
2019-03-03T10:50:33.878Z,72.25
2019-03-03T10:51:33.837Z,72.29
2019-03-03T10:52:33.888Z,72.15
2019-03-03T10:53:33.831Z,72.16
2019-03-03T10:54:33.826Z,72.36
2019-03-03T10:55:33.849Z,72.28
2019-03-03T10:56:33.837Z,72.45
2019-03-03T10:57:33.908Z,72.52
2019-03-03T10:58:33.823Z,72.1
2019-03-03T10:59:33.919Z,72.27
2019-03-03T11:00:33.819Z,72.37
2019-03-03T11:01:33.822Z,72.33
2019-03-03T11:02:33.824Z,72.41
2019-03-03T11:03:33.818Z,72.24
2019-03-03T11:04:33.833Z,71.82
2019-03-03T11:05:33.811Z,71.87
2019-03-03T11:06:33.825Z,72
2019-03-03T11:07:33.799Z,72.1
2019-03-03T11:08:33.827Z,72.34
2019-03-03T11:09:33.814Z,72.32
2019-03-03T11:10:33.831Z,71.93
2019-03-03T11:11:33.827Z,71.98
2019-03-03T11:12:33.914Z,72.06
2019-03-03T11:13:33.842Z,72.2
2019-03-03T11:14:33.805Z,72.25
2019-03-03T11:15:33.810Z,72.23
2019-03-03T11:16:33.800Z,72.29
2019-03-03T11:17:33.807Z,72.17
2019-03-03T11:18:33.796Z,72.07
2019-03-03T11:19:33.831Z,72.17
2019-03-03T11:20:33.815Z,72.05
2019-03-03T11:21:33.836Z,71.98
2019-03-03T11:22:33.835Z,72.15
2019-03-03T11:23:33.855Z,72.04
2019-03-03T11:24:33.798Z,72.12
2019-03-03T11:25:33.776Z,72.28
2019-03-03T11:26:33.782Z,72.5
2019-03-03T11:27:33.810Z,72.44
2019-03-03T11:28:33.807Z,72.46
2019-03-03T11:29:33.788Z,72.43
2019-03-03T11:30:33.792Z,72.32
2019-03-03T11:31:33.800Z,72.11
2019-03-03T11:32:33.793Z,72.15
2019-03-03T11:33:33.775Z,72.19
2019-03-03T11:34:33.765Z,72.24
2019-03-03T11:35:33.773Z,72.44
2019-03-03T11:36:33.803Z,72.32
2019-03-03T11:37:33.776Z,72.2
2019-03-03T11:38:33.774Z,72.28
2019-03-03T11:39:33.784Z,71.9
2019-03-03T11:40:33.779Z,71.99
2019-03-03T11:41:33.833Z,71.86
2019-03-03T11:42:33.798Z,71.88
2019-03-03T11:43:33.778Z,71.97
2019-03-03T11:44:33.843Z,71.98
2019-03-03T11:45:33.835Z,71.79
2019-03-03T11:46:33.796Z,71.63
2019-03-03T11:47:33.761Z,71.51
2019-03-03T11:48:33.801Z,71.62
2019-03-03T11:49:33.760Z,71.66
2019-03-03T11:50:33.752Z,71.48
2019-03-03T11:51:33.804Z,71.52
2019-03-03T11:52:33.890Z,71.75
2019-03-03T11:53:33.779Z,71.72
2019-03-03T11:54:33.756Z,71.64
2019-03-03T11:55:33.774Z,71.63
2019-03-03T11:56:33.767Z,71.62
2019-03-03T11:57:33.747Z,71.68
2019-03-03T11:58:33.736Z,71.67
2019-03-03T11:59:33.766Z,71.6
2019-03-03T12:00:33.735Z,71.48
2019-03-03T12:01:33.766Z,71.49
2019-03-03T12:02:33.733Z,71.48
2019-03-03T12:03:33.729Z,71.61
2019-03-03T12:04:33.776Z,71.77
2019-03-03T12:05:33.793Z,71.84
2019-03-03T12:06:33.783Z,71.51
2019-03-03T12:07:33.740Z,71.5
2019-03-03T12:08:33.730Z,71.4
2019-03-03T12:09:33.762Z,71.25
2019-03-03T12:10:34.198Z,71.54
2019-03-03T12:11:33.718Z,71.44
2019-03-03T12:12:33.722Z,71.42
2019-03-03T12:13:33.730Z,71.32
2019-03-03T12:14:33.724Z,71.53
2019-03-03T12:15:33.720Z,71.25
2019-03-03T12:16:33.739Z,71.06
2019-03-03T12:17:35.349Z,71.17
2019-03-03T12:18:34.113Z,71.36
2019-03-03T12:19:33.753Z,71.42
2019-03-03T12:20:33.715Z,71.31
2019-03-03T12:21:33.745Z,71.11
2019-03-03T12:22:33.726Z,71.16
2019-03-03T12:23:33.717Z,71.06
2019-03-03T12:24:33.721Z,71.17
2019-03-03T12:25:33.707Z,71.3
2019-03-03T12:26:33.710Z,70.96
2019-03-03T12:27:33.721Z,70.56
2019-03-03T12:28:33.715Z,70.64
2019-03-03T12:29:33.712Z,70.37
2019-03-03T12:30:33.704Z,70.37
2019-03-03T12:31:33.731Z,70.42
2019-03-03T12:32:33.692Z,70.54
2019-03-03T12:33:33.721Z,70.3
2019-03-03T12:34:33.728Z,70.45
2019-03-03T12:35:33.768Z,70.42
2019-03-03T12:36:33.723Z,70.64
2019-03-03T12:37:33.717Z,70.31
2019-03-03T12:38:33.706Z,70.45
2019-03-03T12:39:33.694Z,70.39
2019-03-03T12:40:33.794Z,70.48
2019-03-03T12:41:33.698Z,70.51
2019-03-03T12:42:33.701Z,70.44
2019-03-03T12:43:33.708Z,70.44
2019-03-03T12:44:33.739Z,70.35
2019-03-03T12:45:33.698Z,70.27
2019-03-03T12:46:33.701Z,70.35
2019-03-03T12:47:33.745Z,70.47
2019-03-03T12:48:33.701Z,70.38
2019-03-03T12:49:33.696Z,70.39
2019-03-03T12:50:33.668Z,70.25
2019-03-03T12:51:33.762Z,70.27
2019-03-03T12:52:33.752Z,70.44
2019-03-03T12:53:34.839Z,70.43
2019-03-03T12:54:33.724Z,70.32
2019-03-03T12:55:33.677Z,70.37